Terminal Aerodrome Forecast
Issued by NWS Cleveland, OH

Home | Current Version | Previous Version | Text Only | Print | Product List | Glossary Off
Versions: 1 2 3 4 5 6 7 8 9 10 11 12 13 14 15 16 17 18 19 20

000
FTUS41 KCLE 241100
TAFYNG
TAF
KYNG 241131Z 2412/2512 02005KT P6SM SCT040
     FM241500 06008KT P6SM SCT250
     FM250200 10006KT P6SM BKN100
     FM250800 12012G20KT P6SM OVC050=

USA.gov is the U.S. government's official web portal to all federal, state and local government web resources and services.